Perm/Bolshoye Savino International Airport

Airport
ICAO code: 
USPP
IATA Code: 
PEE
Summary
ICAO Region: 
EUR
Territory: 
Location: 
Bolshoye Savino, Permskiy Kray
Serving: 
Perm
Elevation: 
123 ft
Coordinates: 
Aerial View: 
57° 55' 10.931" N, 56° 1' 9.289" E
Metar
Observation
USPP 291230Z 22006MPS 9999 SCT009 OVC036 M01/M03 Q1017 R21/490145 NOSIG RMK QFE752
Station
Perm'/Bolshoe Savino
Date/Time
2021-11-29 12:30:00
Wind direction
220°
Lowest cloud amount
scattered clouds
Temperature
-1°C
Dew point
-3°C
Humidity
86%
QNH
1017 hPa
Weather condition
n/a

Description

Perm International Airport is an international airport located in Perm Krai, Russia located 16 kilometres southwest of Perm, in the village of Bolshoye Savino.

Runways

Designator Length Width Surface Rops
3/21 3206 49 CON Yes/Yes
Airport map: 
Aerial View: 

Accidents and Serious Incidents at or in the vicinity of USPP

SKYbrary Partners:

Safety knowledge contributed by: